createdAt,value
2023-11-20T00:02:11.534Z,37.84
2023-11-20T00:04:39.242Z,37.70
2023-11-20T00:07:06.929Z,37.84
2023-11-20T00:09:34.686Z,37.74
2023-11-20T00:12:02.321Z,37.77
2023-11-20T00:14:31.164Z,37.51
2023-11-20T00:16:59.953Z,37.50
2023-11-20T00:19:28.202Z,37.72
2023-11-20T00:21:55.744Z,37.63
2023-11-20T00:24:23.282Z,37.42
2023-11-20T00:26:50.767Z,37.51
2023-11-20T00:29:18.320Z,37.41
2023-11-20T00:31:47.170Z,37.70
2023-11-20T00:34:14.796Z,37.58
2023-11-20T00:36:44.356Z,37.53
2023-11-20T00:39:11.908Z,37.47
2023-11-20T00:41:40.043Z,37.53
2023-11-20T00:44:08.090Z,37.44
2023-11-20T00:46:35.733Z,37.59
2023-11-20T00:49:06.555Z,37.60
2023-11-20T00:51:34.297Z,37.51
2023-11-20T00:54:01.856Z,37.41
2023-11-20T00:56:29.796Z,37.39
2023-11-20T00:58:57.289Z,37.55
2023-11-20T01:01:24.836Z,37.45
2023-11-20T01:03:52.426Z,37.72
2023-11-20T01:06:21.721Z,37.47
2023-11-20T01:08:49.290Z,37.54
2023-11-20T01:11:17.483Z,37.49
2023-11-20T01:13:44.988Z,37.43
2023-11-20T01:16:13.233Z,37.18
2023-11-20T01:18:40.829Z,37.17
2023-11-20T01:21:10.005Z,37.10
2023-11-20T01:23:39.807Z,37.38
2023-11-20T01:26:07.440Z,37.28
2023-11-20T01:28:36.478Z,37.19
2023-11-20T01:31:04.004Z,37.48
2023-11-20T01:33:31.575Z,37.24
2023-11-20T01:35:59.234Z,37.13
2023-11-20T01:38:27.163Z,37.45
2023-11-20T01:40:56.285Z,37.48
2023-11-20T01:43:23.840Z,36.99
2023-11-20T01:45:51.448Z,37.30
2023-11-20T01:48:19.071Z,36.98
2023-11-20T01:50:46.550Z,36.83
2023-11-20T01:53:14.059Z,36.75
2023-11-20T01:55:41.575Z,37.08
2023-11-20T01:58:10.823Z,36.94
2023-11-20T02:00:38.389Z,36.94
2023-11-20T02:03:07.627Z,37.20
2023-11-20T02:05:35.422Z,37.22
2023-11-20T02:08:03.946Z,37.02
2023-11-20T02:10:31.465Z,37.28
2023-11-20T02:12:59.910Z,37.19
2023-11-20T02:15:28.858Z,37.33
2023-11-20T02:17:56.380Z,37.62
2023-11-20T02:20:24.698Z,37.64
2023-11-20T02:22:52.219Z,37.69
2023-11-20T02:25:19.764Z,37.94
2023-11-20T02:27:53.489Z,38.01
2023-11-20T02:30:22.508Z,37.83
2023-11-20T02:32:49.886Z,38.21
2023-11-20T02:35:18.093Z,37.79
2023-11-20T02:37:46.112Z,38.13
2023-11-20T02:40:13.861Z,37.93
2023-11-20T02:42:42.109Z,37.77
2023-11-20T02:45:13.065Z,38.13
2023-11-20T02:47:41.924Z,38.09
2023-11-20T02:50:09.579Z,37.79
2023-11-20T02:52:37.142Z,37.86
2023-11-20T02:55:07.851Z,37.77
2023-11-20T02:57:35.425Z,37.92
2023-11-20T03:00:03.179Z,37.26
2023-11-20T03:02:30.912Z,37.81
2023-11-20T03:04:59.829Z,37.78
2023-11-20T03:07:27.327Z,37.48
2023-11-20T03:09:54.895Z,37.65
2023-11-20T03:12:22.445Z,37.77
2023-11-20T03:14:49.941Z,37.97
2023-11-20T03:17:17.553Z,38.00
2023-11-20T03:19:45.515Z,38.21
2023-11-20T03:22:14.495Z,37.94
2023-11-20T03:24:41.862Z,37.60
2023-11-20T03:27:09.365Z,37.88
2023-11-20T03:29:37.242Z,37.52
2023-11-20T03:32:05.412Z,37.81
2023-11-20T03:34:33.019Z,37.36
2023-11-20T03:37:00.639Z,37.75
2023-11-20T03:39:29.537Z,37.53
2023-11-20T03:41:57.070Z,37.44
2023-11-20T03:44:24.836Z,37.62
2023-11-20T03:46:52.425Z,37.49
2023-11-20T03:49:19.949Z,37.62
2023-11-20T03:51:47.669Z,37.68
2023-11-20T03:54:15.191Z,37.39
2023-11-20T03:56:44.045Z,37.53
2023-11-20T03:59:11.533Z,37.50
2023-11-20T04:01:39.129Z,37.61
2023-11-20T04:04:07.729Z,37.52
2023-11-20T04:06:35.316Z,37.78
2023-11-20T04:09:03.292Z,37.76
2023-11-20T04:11:30.949Z,37.60
2023-11-20T04:13:59.763Z,37.73
2023-11-20T04:16:27.587Z,37.75
2023-11-20T04:18:55.497Z,37.75
2023-11-20T04:21:23.318Z,37.88
2023-11-20T04:23:53.049Z,37.30
2023-11-20T04:26:20.594Z,37.58
2023-11-20T04:28:48.467Z,37.79
2023-11-20T04:31:17.360Z,38.08
2023-11-20T04:33:45.061Z,37.93
2023-11-20T04:36:12.674Z,37.88
2023-11-20T04:38:40.855Z,38.09
2023-11-20T04:41:09.006Z,38.04
2023-11-20T04:43:36.721Z,37.98
2023-11-20T04:46:04.236Z,38.02
2023-11-20T04:48:34.267Z,37.90
2023-11-20T04:51:01.878Z,37.81
2023-11-20T04:53:29.422Z,37.58
2023-11-20T04:55:57.598Z,37.50
2023-11-20T04:58:25.233Z,37.39
2023-11-20T05:00:53.523Z,37.53
2023-11-20T05:03:22.289Z,37.51
2023-11-20T05:05:51.362Z,37.44
2023-11-20T05:08:18.919Z,37.64
2023-11-20T05:10:46.536Z,37.12
2023-11-20T05:13:17.765Z,37.34
2023-11-20T05:15:46.884Z,37.20
2023-11-20T05:18:14.508Z,36.95
2023-11-20T05:20:42.020Z,37.35
2023-11-20T05:23:11.637Z,37.06
2023-11-20T05:25:39.217Z,36.89
2023-11-20T05:28:06.768Z,36.80
2023-11-20T05:30:34.359Z,36.81
2023-11-20T05:33:01.969Z,36.90
2023-11-20T05:35:29.491Z,36.96
2023-11-20T05:37:56.990Z,36.62
2023-11-20T05:40:26.018Z,36.94
2023-11-20T05:42:53.667Z,36.62
2023-11-20T05:45:21.229Z,36.84
2023-11-20T05:47:48.754Z,36.60
2023-11-20T05:50:16.310Z,36.60
2023-11-20T05:52:43.882Z,36.48
2023-11-20T05:55:11.497Z,36.83
2023-11-20T05:57:40.447Z,36.43
2023-11-20T06:00:11.337Z,36.70
2023-11-20T06:02:39.052Z,37.00
2023-11-20T06:05:09.890Z,36.65
2023-11-20T06:07:37.877Z,36.97
2023-11-20T06:10:05.921Z,36.83
2023-11-20T06:12:33.424Z,36.87
2023-11-20T06:15:02.527Z,36.89
2023-11-20T06:17:30.340Z,36.78
2023-11-20T06:19:58.602Z,36.75
2023-11-20T06:22:26.107Z,36.95
2023-11-20T06:24:53.687Z,36.84
2023-11-20T06:27:21.224Z,36.89
2023-11-20T06:29:48.753Z,36.83
2023-11-20T06:32:16.767Z,36.70
2023-11-20T06:34:44.339Z,36.90
2023-11-20T06:37:11.961Z,36.65
2023-11-20T06:39:40.541Z,36.59
2023-11-20T06:42:08.511Z,36.52
2023-11-20T06:44:38.610Z,36.69
2023-11-20T06:47:08.827Z,36.49
2023-11-20T06:49:37.815Z,36.45
2023-11-20T06:52:06.114Z,36.61
2023-11-20T06:54:33.661Z,36.38
2023-11-20T06:57:01.179Z,36.27
2023-11-20T06:59:30.526Z,36.47
2023-11-20T07:01:58.063Z,36.43
2023-11-20T07:04:25.677Z,36.51
2023-11-20T07:06:55.119Z,36.51
2023-11-20T07:09:29.974Z,36.42
2023-11-20T07:11:57.516Z,36.16
2023-11-20T07:14:25.836Z,36.19
2023-11-20T07:16:53.425Z,36.37
2023-11-20T07:19:22.325Z,36.25
2023-11-20T07:21:50.037Z,36.05
2023-11-20T07:24:20.832Z,36.11
2023-11-20T07:26:48.351Z,36.18
2023-11-20T07:29:16.064Z,36.17
2023-11-20T07:31:43.586Z,36.30
2023-11-20T07:34:11.162Z,36.01
2023-11-20T07:36:38.661Z,36.13
2023-11-20T07:39:06.181Z,35.71
2023-11-20T07:41:35.032Z,36.02
2023-11-20T07:44:02.576Z,35.67
2023-11-20T07:46:30.504Z,35.60
2023-11-20T07:48:59.261Z,36.03
2023-11-20T07:51:26.844Z,35.99
2023-11-20T07:53:54.967Z,35.71
2023-11-20T07:56:22.467Z,35.84
2023-11-20T07:58:53.348Z,35.82
2023-11-20T08:01:21.193Z,35.85
2023-11-20T08:03:49.310Z,35.64
2023-11-20T08:06:20.785Z,36.07
2023-11-20T08:08:49.653Z,35.99
2023-11-20T08:11:17.494Z,35.68
2023-11-20T08:13:45.063Z,35.74
2023-11-20T08:16:14.070Z,35.49
2023-11-20T08:18:41.745Z,35.69
2023-11-20T08:21:09.328Z,35.71
2023-11-20T08:23:36.857Z,35.41
2023-11-20T08:26:06.277Z,35.73
2023-11-20T08:28:33.769Z,35.48
2023-11-20T08:31:01.283Z,35.76
2023-11-20T08:33:30.304Z,35.53
2023-11-20T08:35:58.266Z,35.55
2023-11-20T08:38:25.776Z,35.92
2023-11-20T08:40:53.633Z,35.53
2023-11-20T08:43:21.348Z,35.59
2023-11-20T08:45:49.670Z,35.74
2023-11-20T08:48:19.116Z,35.77
2023-11-20T08:50:48.040Z,35.79
2023-11-20T08:53:15.982Z,35.59
2023-11-20T08:55:43.535Z,35.78
2023-11-20T08:58:11.546Z,35.60
2023-11-20T09:00:39.156Z,35.77
2023-11-20T09:03:06.736Z,36.18
2023-11-20T09:05:34.308Z,36.09
2023-11-20T09:08:03.585Z,35.73
2023-11-20T09:10:31.149Z,35.96
2023-11-20T09:12:58.730Z,35.92
2023-11-20T09:15:27.834Z,35.83
2023-11-20T09:17:55.397Z,35.96
2023-11-20T09:20:25.465Z,35.83
2023-11-20T09:22:52.949Z,35.69
2023-11-20T09:25:22.359Z,35.47
2023-11-20T09:27:50.023Z,35.58
2023-11-20T09:30:17.634Z,35.99
2023-11-20T09:32:46.006Z,35.77
2023-11-20T09:35:13.534Z,35.86
2023-11-20T09:37:41.038Z,35.47
2023-11-20T09:40:09.644Z,35.71
2023-11-20T09:42:40.948Z,35.78
2023-11-20T09:45:10.613Z,35.67
2023-11-20T09:47:38.269Z,35.71
2023-11-20T09:50:06.428Z,35.60
2023-11-20T09:52:34.896Z,35.62
2023-11-20T09:55:02.486Z,35.76
2023-11-20T09:57:30.005Z,35.65
2023-11-20T09:59:58.893Z,35.86
2023-11-20T10:02:26.582Z,35.90
2023-11-20T10:04:55.845Z,36.18
2023-11-20T10:07:25.095Z,35.99
2023-11-20T10:09:53.495Z,36.34
2023-11-20T10:12:21.001Z,36.34
2023-11-20T10:14:48.487Z,36.36
2023-11-20T10:17:17.380Z,36.24
2023-11-20T10:19:44.884Z,36.28
2023-11-20T10:22:12.465Z,36.39
2023-11-20T10:24:40.866Z,36.26
2023-11-20T10:27:08.464Z,36.37
2023-11-20T10:29:36.208Z,36.25
2023-11-20T10:32:04.054Z,36.26
2023-11-20T10:34:32.993Z,36.15
2023-11-20T10:37:10.036Z,36.45
2023-11-20T10:39:38.273Z,36.64
2023-11-20T10:42:06.569Z,36.60
2023-11-20T10:44:36.836Z,36.60
2023-11-20T10:47:06.083Z,36.59
2023-11-20T10:49:35.652Z,36.61
2023-11-20T10:52:04.842Z,36.68
2023-11-20T10:54:47.750Z,36.61
2023-11-20T10:57:15.553Z,36.49
2023-11-20T10:59:44.740Z,36.61
2023-11-20T11:02:19.841Z,36.61
2023-11-20T11:04:49.335Z,36.74
2023-11-20T11:07:17.652Z,36.77
2023-11-20T11:09:45.429Z,36.89
2023-11-20T11:12:13.489Z,36.98
2023-11-20T11:14:41.508Z,36.90
2023-11-20T11:17:11.910Z,36.89
2023-11-20T11:19:43.769Z,37.00
2023-11-20T11:22:14.455Z,37.10
2023-11-20T11:24:42.421Z,37.01
2023-11-20T11:27:14.280Z,36.98
2023-11-20T11:29:44.308Z,37.00
2023-11-20T11:32:31.329Z,37.03
2023-11-20T11:35:20.580Z,36.96
2023-11-20T11:37:52.625Z,36.60
2023-11-20T11:40:27.003Z,36.47
2023-11-20T11:42:57.123Z,36.81
2023-11-20T11:45:26.737Z,36.78
2023-11-20T11:47:54.349Z,36.79
2023-11-20T11:50:22.044Z,36.88
2023-11-20T11:52:51.320Z,37.01
2023-11-20T11:55:26.708Z,36.90
2023-11-20T11:57:58.694Z,36.82
2023-11-20T12:00:28.173Z,36.88
2023-11-20T12:02:57.778Z,36.89
2023-11-20T12:05:25.499Z,36.52
2023-11-20T12:07:58.219Z,36.61
2023-11-20T12:10:54.847Z,36.44
2023-11-20T12:13:22.712Z,36.58
2023-11-20T12:15:52.126Z,36.55
2023-11-20T12:18:22.380Z,36.69
2023-11-20T12:21:08.740Z,36.46
2023-11-20T12:23:38.427Z,36.34
2023-11-20T12:26:07.651Z,36.58
2023-11-20T12:28:36.561Z,36.42
2023-11-20T12:31:05.555Z,36.37
2023-11-20T12:33:33.816Z,36.19
2023-11-20T12:36:02.466Z,36.31
2023-11-20T12:38:31.765Z,36.11
2023-11-20T12:41:04.414Z,35.82
2023-11-20T12:43:32.152Z,35.80
2023-11-20T12:46:00.492Z,35.89
2023-11-20T12:48:29.579Z,35.69
2023-11-20T12:50:56.954Z,35.80
2023-11-20T12:53:24.613Z,35.85
2023-11-20T12:55:52.801Z,35.60
2023-11-20T12:58:21.782Z,35.80
2023-11-20T13:00:49.412Z,35.86
2023-11-20T13:03:18.363Z,35.62
2023-11-20T13:05:47.682Z,35.72
2023-11-20T13:08:16.382Z,35.83
2023-11-20T13:10:43.874Z,35.64
2023-11-20T13:13:12.728Z,35.69
2023-11-20T13:15:41.617Z,34.96
2023-11-20T13:18:09.284Z,35.49
2023-11-20T13:20:38.031Z,35.31
2023-11-20T13:23:05.591Z,35.41
2023-11-20T13:25:33.178Z,35.35
2023-11-20T13:28:00.723Z,35.06
2023-11-20T13:30:28.377Z,35.18
2023-11-20T13:32:57.528Z,35.31
2023-11-20T13:35:25.127Z,35.23
2023-11-20T13:37:55.993Z,35.16
2023-11-20T13:40:30.741Z,34.90
2023-11-20T13:43:04.586Z,35.01
2023-11-20T13:45:32.532Z,35.29
2023-11-20T13:48:01.448Z,35.13
2023-11-20T13:50:29.028Z,34.92
2023-11-20T13:52:57.315Z,34.85
2023-11-20T13:55:24.851Z,35.14
2023-11-20T13:57:52.452Z,35.00
2023-11-20T14:00:20.598Z,34.86
2023-11-20T14:02:48.775Z,34.89
2023-11-20T14:05:18.674Z,34.42
2023-11-20T14:07:46.399Z,34.79
2023-11-20T14:10:14.049Z,34.70
2023-11-20T14:12:41.702Z,34.83
2023-11-20T14:15:09.687Z,34.63
2023-11-20T14:17:37.195Z,34.79
2023-11-20T14:20:06.341Z,34.83
2023-11-20T14:22:35.220Z,34.88
2023-11-20T14:25:04.751Z,34.69
2023-11-20T14:27:32.536Z,34.66
2023-11-20T14:30:00.155Z,34.55
2023-11-20T14:32:27.756Z,34.55
2023-11-20T14:34:55.296Z,34.70
2023-11-20T14:37:23.718Z,34.98
2023-11-20T14:39:54.235Z,34.68
2023-11-20T14:42:21.822Z,34.51
2023-11-20T14:44:49.845Z,34.46
2023-11-20T14:47:17.361Z,34.76
2023-11-20T14:49:44.866Z,34.89
2023-11-20T14:52:13.233Z,34.37
2023-11-20T14:54:41.315Z,34.65
2023-11-20T14:57:10.142Z,34.48
2023-11-20T14:59:37.625Z,34.14
2023-11-20T15:02:05.484Z,34.45
2023-11-20T15:04:33.084Z,34.72
2023-11-20T15:07:00.916Z,34.34
2023-11-20T15:09:28.477Z,34.42
2023-11-20T15:11:55.989Z,34.75
2023-11-20T15:14:25.250Z,34.82
2023-11-20T15:16:52.816Z,34.41
2023-11-20T15:19:20.403Z,34.54
2023-11-20T15:21:50.518Z,34.39
2023-11-20T15:24:18.034Z,34.70
2023-11-20T15:26:47.642Z,34.28
2023-11-20T15:29:15.211Z,34.52
2023-11-20T15:31:44.068Z,34.80
2023-11-20T15:34:11.679Z,35.06
2023-11-20T15:36:40.939Z,34.67
2023-11-20T15:39:08.508Z,34.50
2023-11-20T15:41:36.029Z,34.37
2023-11-20T15:44:05.129Z,34.68
2023-11-20T15:46:32.658Z,34.51
2023-11-20T15:49:01.559Z,34.54
2023-11-20T15:51:29.085Z,34.75
2023-11-20T15:53:56.573Z,34.94
2023-11-20T15:56:24.093Z,34.75
2023-11-20T15:58:51.615Z,34.62
2023-11-20T16:01:25.060Z,34.45
2023-11-20T16:03:59.537Z,34.91
2023-11-20T16:06:28.522Z,35.11
2023-11-20T16:08:56.055Z,35.13
2023-11-20T16:11:23.579Z,35.33
2023-11-20T16:13:51.579Z,35.11
2023-11-20T16:16:19.291Z,35.03
2023-11-20T16:18:47.143Z,35.33
2023-11-20T16:21:14.693Z,35.39
2023-11-20T16:23:44.406Z,35.50
2023-11-20T16:26:14.499Z,35.49
2023-11-20T16:28:43.560Z,35.49
2023-11-20T16:31:11.112Z,35.60
2023-11-20T16:33:38.631Z,35.63
2023-11-20T16:36:06.780Z,35.35
2023-11-20T16:38:34.644Z,35.46
2023-11-20T16:41:03.536Z,34.90
2023-11-20T16:43:31.125Z,34.93
2023-11-20T16:45:59.852Z,34.94
2023-11-20T16:48:28.005Z,35.27
2023-11-20T16:50:55.521Z,35.12
2023-11-20T16:53:23.082Z,34.91
2023-11-20T16:55:50.592Z,34.65
2023-11-20T16:58:19.872Z,34.94
2023-11-20T17:00:48.234Z,35.30
2023-11-20T17:03:15.921Z,35.15
2023-11-20T17:05:45.597Z,35.04
2023-11-20T17:08:13.130Z,35.05
2023-11-20T17:13:11.022Z,35.29
2023-11-20T17:15:39.848Z,35.25
2023-11-20T17:18:07.429Z,35.44
2023-11-20T17:20:34.989Z,35.44
2023-11-20T17:23:02.498Z,35.60
2023-11-20T17:25:30.006Z,35.47
2023-11-20T17:27:57.943Z,35.61
2023-11-20T17:30:25.515Z,35.43
2023-11-20T17:32:54.377Z,35.36
2023-11-20T17:35:24.706Z,35.65
2023-11-20T17:40:21.387Z,35.79
2023-11-20T17:42:50.538Z,35.73
2023-11-20T17:45:18.352Z,35.80
2023-11-20T17:47:45.907Z,35.48
2023-11-20T17:50:14.744Z,35.63
2023-11-20T17:52:42.312Z,35.46
2023-11-20T17:55:10.673Z,35.68
2023-11-20T17:57:39.709Z,35.45
2023-11-20T18:00:11.418Z,35.72
2023-11-20T18:02:39.403Z,35.48
2023-11-20T18:05:08.528Z,35.53
2023-11-20T18:07:38.076Z,35.74
2023-11-20T18:10:11.708Z,35.89
2023-11-20T18:12:39.837Z,35.51
2023-11-20T18:15:11.374Z,35.59
2023-11-20T18:17:40.075Z,35.39
2023-11-20T18:20:10.378Z,35.89
2023-11-20T18:22:40.225Z,35.63
2023-11-20T18:25:09.248Z,35.58
2023-11-20T18:27:38.592Z,35.52
2023-11-20T18:30:07.378Z,35.84
2023-11-20T18:32:34.990Z,35.51
2023-11-20T18:35:03.330Z,35.60
2023-11-20T18:37:30.855Z,35.78
2023-11-20T18:39:59.750Z,35.86
2023-11-20T18:42:27.285Z,35.57
2023-11-20T18:44:54.788Z,35.45
2023-11-20T18:47:23.762Z,35.56
2023-11-20T18:49:51.085Z,35.70
2023-11-20T18:52:18.595Z,35.87
2023-11-20T18:54:47.850Z,35.78
2023-11-20T18:57:16.806Z,35.72
2023-11-20T18:59:44.133Z,35.54
2023-11-20T19:02:11.630Z,35.56
2023-11-20T19:04:39.336Z,35.71
2023-11-20T19:07:07.131Z,35.46
2023-11-20T19:09:37.936Z,35.44
2023-11-20T19:12:07.948Z,35.73
2023-11-20T19:14:36.857Z,35.71
2023-11-20T19:17:05.878Z,35.50
2023-11-20T19:19:33.622Z,35.47
2023-11-20T19:22:01.285Z,35.44
2023-11-20T19:24:28.835Z,35.81
2023-11-20T19:26:56.366Z,35.82
2023-11-20T19:29:24.068Z,35.43
2023-11-20T19:31:55.585Z,35.59
2023-11-20T19:34:23.264Z,35.53
2023-11-20T19:36:50.800Z,35.80
2023-11-20T19:39:18.322Z,35.84
2023-11-20T19:41:45.804Z,35.77
2023-11-20T19:44:13.398Z,35.79
2023-11-20T19:46:41.276Z,35.92
2023-11-20T19:49:10.396Z,35.53
2023-11-20T19:51:38.536Z,35.89
2023-11-20T19:54:06.465Z,35.88
2023-11-20T19:56:34.012Z,35.51
2023-11-20T19:59:01.789Z,35.86
2023-11-20T20:01:29.476Z,35.62
2023-11-20T20:03:57.964Z,35.53
2023-11-20T20:06:26.932Z,35.51
2023-11-20T20:08:54.248Z,35.63
2023-11-20T20:11:22.011Z,35.97
2023-11-20T20:13:49.553Z,35.83
2023-11-20T20:16:17.126Z,35.71
2023-11-20T20:18:44.715Z,35.88
2023-11-20T20:21:12.849Z,35.96
2023-11-20T20:23:41.688Z,35.76
2023-11-20T20:26:09.223Z,35.62
2023-11-20T20:28:36.943Z,35.80
2023-11-20T20:31:05.680Z,35.87
2023-11-20T20:33:33.215Z,35.99
2023-11-20T20:36:00.854Z,35.49
2023-11-20T20:38:28.401Z,35.41
2023-11-20T20:40:58.367Z,35.57
2023-11-20T20:43:26.505Z,35.58
2023-11-20T20:45:54.435Z,35.73
2023-11-20T20:48:22.083Z,35.80
2023-11-20T20:50:49.694Z,35.76
2023-11-20T20:53:17.243Z,35.71
2023-11-20T20:55:44.779Z,35.67
2023-11-20T20:58:13.900Z,35.27
2023-11-20T21:00:41.432Z,35.54
2023-11-20T21:03:09.906Z,35.46
2023-11-20T21:05:38.006Z,35.36
2023-11-20T21:08:05.571Z,35.50
2023-11-20T21:10:33.086Z,35.76
2023-11-20T21:13:01.798Z,35.67
2023-11-20T21:15:31.621Z,35.61
2023-11-20T21:17:59.167Z,35.61
2023-11-20T21:20:26.665Z,35.90
2023-11-20T21:22:54.160Z,35.50
2023-11-20T21:25:24.481Z,35.57
2023-11-20T21:27:52.313Z,35.78
2023-11-20T21:30:19.952Z,35.46
2023-11-20T21:32:49.370Z,35.52
2023-11-20T21:35:17.039Z,35.46
2023-11-20T21:37:45.074Z,35.17
2023-11-20T21:40:12.604Z,35.67
2023-11-20T21:42:40.272Z,35.25
2023-11-20T21:45:09.427Z,35.51
2023-11-20T21:47:37.035Z,35.54
2023-11-20T21:50:07.048Z,35.28
2023-11-20T21:52:34.668Z,35.48
2023-11-20T21:55:03.065Z,35.24
2023-11-20T21:57:30.584Z,35.65
2023-11-20T21:59:58.132Z,35.48
2023-11-20T22:02:25.660Z,35.51
2023-11-20T22:04:53.358Z,35.55
2023-11-20T22:07:22.310Z,35.87
2023-11-20T22:09:49.708Z,35.74
2023-11-20T22:12:17.308Z,35.53
2023-11-20T22:14:44.992Z,35.35
2023-11-20T22:17:12.506Z,35.65
2023-11-20T22:19:40.179Z,35.64
2023-11-20T22:22:07.783Z,35.60
2023-11-20T22:24:36.760Z,35.51
2023-11-20T22:27:04.210Z,35.28
2023-11-20T22:29:31.696Z,35.55
2023-11-20T22:31:59.261Z,35.35
2023-11-20T22:34:26.850Z,35.35
2023-11-20T22:36:54.384Z,35.44
2023-11-20T22:39:22.308Z,35.55
2023-11-20T22:41:51.155Z,35.73
2023-11-20T22:44:18.689Z,35.58
2023-11-20T22:46:46.245Z,35.34
2023-11-20T22:49:14.514Z,35.38
2023-11-20T22:51:42.050Z,35.62
2023-11-20T22:54:09.581Z,35.58
2023-11-20T22:56:37.200Z,35.19
2023-11-20T22:59:06.304Z,35.70
2023-11-20T23:01:34.890Z,35.46
2023-11-20T23:04:03.336Z,35.35
2023-11-20T23:06:31.676Z,35.45
2023-11-20T23:08:59.178Z,35.70
2023-11-20T23:11:26.670Z,35.45
2023-11-20T23:13:54.203Z,35.69
2023-11-20T23:16:23.174Z,35.92
2023-11-20T23:18:50.586Z,35.69
2023-11-20T23:21:18.091Z,35.63
2023-11-20T23:23:45.571Z,35.41
2023-11-20T23:26:13.047Z,35.80
2023-11-20T23:28:40.598Z,35.58
2023-11-20T23:31:08.405Z,35.53
2023-11-20T23:33:37.283Z,35.38
2023-11-20T23:36:05.246Z,35.42
2023-11-20T23:38:32.790Z,35.40
2023-11-20T23:41:00.430Z,35.21
2023-11-20T23:43:28.392Z,35.21
2023-11-20T23:45:59.416Z,35.59
2023-11-20T23:48:26.935Z,35.36
2023-11-20T23:50:55.779Z,35.43
2023-11-20T23:53:23.175Z,35.72
2023-11-20T23:55:50.867Z,35.54
2023-11-20T23:58:18.457Z,35.68
